sensor_id;sensor_type;location;lat;lon;timestamp;P1;durP1;ratioP1;P2;durP2;ratioP2
30872;SDS011;17579;42.690;2.586;2023-02-03T00:01:45;2.22;;;0.93;;
30872;SDS011;17579;42.690;2.586;2023-02-03T00:04:10;3.33;;;1.05;;
30872;SDS011;17579;42.690;2.586;2023-02-03T00:06:36;1.08;;;0.70;;
30872;SDS011;17579;42.690;2.586;2023-02-03T00:09:01;1.77;;;1.00;;
30872;SDS011;17579;42.690;2.586;2023-02-03T00:11:28;2.47;;;0.88;;
30872;SDS011;17579;42.690;2.586;2023-02-03T00:13:54;1.33;;;0.80;;
30872;SDS011;17579;42.690;2.586;2023-02-03T00:16:20;0.93;;;0.70;;
30872;SDS011;17579;42.690;2.586;2023-02-03T00:18:46;2.80;;;0.80;;
30872;SDS011;17579;42.690;2.586;2023-02-03T00:21:11;1.42;;;0.80;;
30872;SDS011;17579;42.690;2.586;2023-02-03T00:23:39;1.90;;;0.68;;
30872;SDS011;17579;42.690;2.586;2023-02-03T00:26:06;0.60;;;0.60;;
30872;SDS011;17579;42.690;2.586;2023-02-03T00:28:33;1.52;;;0.60;;
30872;SDS011;17579;42.690;2.586;2023-02-03T00:30:58;2.45;;;0.70;;
30872;SDS011;17579;42.690;2.586;2023-02-03T00:33:24;1.35;;;0.70;;
30872;SDS011;17579;42.690;2.586;2023-02-03T00:35:49;1.77;;;0.68;;
30872;SDS011;17579;42.690;2.586;2023-02-03T00:38:15;1.27;;;0.77;;
30872;SDS011;17579;42.690;2.586;2023-02-03T00:40:40;2.80;;;0.98;;
30872;SDS011;17579;42.690;2.586;2023-02-03T00:43:06;1.58;;;0.60;;
30872;SDS011;17579;42.690;2.586;2023-02-03T00:45:31;2.03;;;0.90;;
30872;SDS011;17579;42.690;2.586;2023-02-03T00:47:57;0.95;;;0.55;;
30872;SDS011;17579;42.690;2.586;2023-02-03T00:50:22;2.50;;;1.00;;
30872;SDS011;17579;42.690;2.586;2023-02-03T00:52:48;0.93;;;0.73;;
30872;SDS011;17579;42.690;2.586;2023-02-03T00:55:14;2.50;;;0.80;;
30872;SDS011;17579;42.690;2.586;2023-02-03T00:57:39;3.00;;;1.00;;
30872;SDS011;17579;42.690;2.586;2023-02-03T01:00:05;1.42;;;0.77;;
30872;SDS011;17579;42.690;2.586;2023-02-03T01:02:31;2.28;;;1.10;;
30872;SDS011;17579;42.690;2.586;2023-02-03T01:04:57;1.67;;;0.85;;
30872;SDS011;17579;42.690;2.586;2023-02-03T01:07:22;0.70;;;0.70;;
30872;SDS011;17579;42.690;2.586;2023-02-03T01:09:48;1.00;;;0.70;;
30872;SDS011;17579;42.690;2.586;2023-02-03T01:12:14;1.30;;;0.75;;
30872;SDS011;17579;42.690;2.586;2023-02-03T01:14:39;2.72;;;0.93;;
30872;SDS011;17579;42.690;2.586;2023-02-03T01:17:05;2.40;;;0.70;;
30872;SDS011;17579;42.690;2.586;2023-02-03T01:19:30;1.88;;;1.02;;
30872;SDS011;17579;42.690;2.586;2023-02-03T01:21:56;1.30;;;0.70;;
30872;SDS011;17579;42.690;2.586;2023-02-03T01:24:21;0.57;;;0.57;;
30872;SDS011;17579;42.690;2.586;2023-02-03T01:26:47;0.50;;;0.30;;
30872;SDS011;17579;42.690;2.586;2023-02-03T01:29:12;0.43;;;0.40;;
30872;SDS011;17579;42.690;2.586;2023-02-03T01:31:38;2.35;;;0.80;;
30872;SDS011;17579;42.690;2.586;2023-02-03T01:34:06;1.63;;;0.82;;
30872;SDS011;17579;42.690;2.586;2023-02-03T01:36:35;0.88;;;0.60;;
30872;SDS011;17579;42.690;2.586;2023-02-03T01:39:01;0.30;;;0.30;;
30872;SDS011;17579;42.690;2.586;2023-02-03T01:41:29;0.10;;;0.10;;
30872;SDS011;17579;42.690;2.586;2023-02-03T01:43:58;0.10;;;0.10;;
30872;SDS011;17579;42.690;2.586;2023-02-03T01:51:56;0.35;;;0.20;;
30872;SDS011;17579;42.690;2.586;2023-02-03T01:54:26;1.13;;;0.60;;
30872;SDS011;17579;42.690;2.586;2023-02-03T01:56:55;0.82;;;0.70;;
30872;SDS011;17579;42.690;2.586;2023-02-03T01:59:25;0.40;;;0.40;;
30872;SDS011;17579;42.690;2.586;2023-02-03T02:01:53;0.20;;;0.10;;
30872;SDS011;17579;42.690;2.586;2023-02-03T02:04:21;0.25;;;0.25;;
30872;SDS011;17579;42.690;2.586;2023-02-03T02:06:50;0.10;;;0.10;;
30872;SDS011;17579;42.690;2.586;2023-02-03T02:09:16;0.00;;;0.00;;
30872;SDS011;17579;42.690;2.586;2023-02-03T02:11:42;0.45;;;0.10;;
30872;SDS011;17579;42.690;2.586;2023-02-03T02:14:08;0.10;;;0.00;;
30872;SDS011;17579;42.690;2.586;2023-02-03T02:26:42;0.10;;;0.10;;
30872;SDS011;17579;42.690;2.586;2023-02-03T02:29:24;0.10;;;0.10;;
30872;SDS011;17579;42.690;2.586;2023-02-03T02:32:15;0.17;;;0.10;;
30872;SDS011;17579;42.690;2.586;2023-02-03T02:37:46;0.10;;;0.10;;
30872;SDS011;17579;42.690;2.586;2023-02-03T02:46:00;0.10;;;0.10;;
30872;SDS011;17579;42.690;2.586;2023-02-03T02:51:01;0.00;;;0.00;;
30872;SDS011;17579;42.690;2.586;2023-02-03T02:53:31;0.10;;;0.10;;
30872;SDS011;17579;42.690;2.586;2023-02-03T02:56:02;0.10;;;0.10;;
30872;SDS011;17579;42.690;2.586;2023-02-03T02:58:31;0.10;;;0.10;;
30872;SDS011;17579;42.690;2.586;2023-02-03T03:01:00;0.15;;;0.15;;
30872;SDS011;17579;42.690;2.586;2023-02-03T03:03:26;0.30;;;0.30;;
30872;SDS011;17579;42.690;2.586;2023-02-03T03:05:53;0.10;;;0.10;;
30872;SDS011;17579;42.690;2.586;2023-02-03T03:08:23;0.15;;;0.15;;
30872;SDS011;17579;42.690;2.586;2023-02-03T03:10:54;0.30;;;0.30;;
30872;SDS011;17579;42.690;2.586;2023-02-03T03:13:23;0.52;;;0.10;;
30872;SDS011;17579;42.690;2.586;2023-02-03T03:15:54;0.20;;;0.20;;
30872;SDS011;17579;42.690;2.586;2023-02-03T03:18:24;0.10;;;0.10;;
30872;SDS011;17579;42.690;2.586;2023-02-03T03:20:56;1.85;;;0.20;;
30872;SDS011;17579;42.690;2.586;2023-02-03T03:23:31;0.10;;;0.10;;
30872;SDS011;17579;42.690;2.586;2023-02-03T03:26:07;0.10;;;0.10;;
30872;SDS011;17579;42.690;2.586;2023-02-03T03:28:41;0.17;;;0.13;;
30872;SDS011;17579;42.690;2.586;2023-02-03T03:31:11;0.10;;;0.10;;
30872;SDS011;17579;42.690;2.586;2023-02-03T03:33:37;0.00;;;0.00;;
30872;SDS011;17579;42.690;2.586;2023-02-03T03:36:05;0.20;;;0.20;;
30872;SDS011;17579;42.690;2.586;2023-02-03T03:38:43;0.30;;;0.13;;
30872;SDS011;17579;42.690;2.586;2023-02-03T03:43:49;0.08;;;0.05;;
30872;SDS011;17579;42.690;2.586;2023-02-03T03:46:20;0.10;;;0.10;;
30872;SDS011;17579;42.690;2.586;2023-02-03T03:48:53;1.45;;;0.10;;
30872;SDS011;17579;42.690;2.586;2023-02-03T03:53:49;0.10;;;0.10;;
30872;SDS011;17579;42.690;2.586;2023-02-03T03:56:19;0.65;;;0.28;;
30872;SDS011;17579;42.690;2.586;2023-02-03T03:58:49;0.10;;;0.10;;
30872;SDS011;17579;42.690;2.586;2023-02-03T04:01:17;0.22;;;0.20;;
30872;SDS011;17579;42.690;2.586;2023-02-03T04:03:47;0.10;;;0.10;;
30872;SDS011;17579;42.690;2.586;2023-02-03T04:06:16;0.10;;;0.10;;
30872;SDS011;17579;42.690;2.586;2023-02-03T04:08:42;0.10;;;0.10;;
30872;SDS011;17579;42.690;2.586;2023-02-03T04:11:07;0.10;;;0.10;;
30872;SDS011;17579;42.690;2.586;2023-02-03T04:13:33;0.00;;;0.00;;
30872;SDS011;17579;42.690;2.586;2023-02-03T04:15:59;0.00;;;0.00;;
30872;SDS011;17579;42.690;2.586;2023-02-03T04:18:24;0.43;;;0.10;;
30872;SDS011;17579;42.690;2.586;2023-02-03T04:20:50;1.73;;;0.10;;
30872;SDS011;17579;42.690;2.586;2023-02-03T04:23:15;0.17;;;0.17;;
30872;SDS011;17579;42.690;2.586;2023-02-03T04:25:41;0.22;;;0.20;;
30872;SDS011;17579;42.690;2.586;2023-02-03T04:28:06;0.20;;;0.20;;
30872;SDS011;17579;42.690;2.586;2023-02-03T04:30:32;0.13;;;0.13;;
30872;SDS011;17579;42.690;2.586;2023-02-03T04:32:58;0.22;;;0.20;;
30872;SDS011;17579;42.690;2.586;2023-02-03T04:35:23;0.30;;;0.10;;
30872;SDS011;17579;42.690;2.586;2023-02-03T04:37:49;0.10;;;0.10;;
30872;SDS011;17579;42.690;2.586;2023-02-03T04:40:14;0.10;;;0.10;;
30872;SDS011;17579;42.690;2.586;2023-02-03T04:42:40;0.10;;;0.10;;
30872;SDS011;17579;42.690;2.586;2023-02-03T04:45:06;0.20;;;0.00;;
30872;SDS011;17579;42.690;2.586;2023-02-03T04:47:34;0.20;;;0.20;;
30872;SDS011;17579;42.690;2.586;2023-02-03T04:50:00;0.50;;;0.22;;
30872;SDS011;17579;42.690;2.586;2023-02-03T04:52:26;0.30;;;0.25;;
30872;SDS011;17579;42.690;2.586;2023-02-03T04:54:51;0.68;;;0.20;;
30872;SDS011;17579;42.690;2.586;2023-02-03T04:57:17;0.10;;;0.10;;
30872;SDS011;17579;42.690;2.586;2023-02-03T04:59:43;0.03;;;0.03;;
30872;SDS011;17579;42.690;2.586;2023-02-03T05:02:08;0.15;;;0.10;;
30872;SDS011;17579;42.690;2.586;2023-02-03T05:04:34;0.00;;;0.00;;
30872;SDS011;17579;42.690;2.586;2023-02-03T05:06:59;0.00;;;0.00;;
30872;SDS011;17579;42.690;2.586;2023-02-03T05:09:25;0.00;;;0.00;;
30872;SDS011;17579;42.690;2.586;2023-02-03T05:11:52;0.20;;;0.20;;
30872;SDS011;17579;42.690;2.586;2023-02-03T05:14:18;0.10;;;0.10;;
30872;SDS011;17579;42.690;2.586;2023-02-03T05:16:43;0.08;;;0.08;;
30872;SDS011;17579;42.690;2.586;2023-02-03T05:19:09;0.20;;;0.20;;
30872;SDS011;17579;42.690;2.586;2023-02-03T05:21:35;0.10;;;0.10;;
30872;SDS011;17579;42.690;2.586;2023-02-03T05:24:00;0.10;;;0.10;;
30872;SDS011;17579;42.690;2.586;2023-02-03T05:26:27;0.13;;;0.10;;
30872;SDS011;17579;42.690;2.586;2023-02-03T05:28:53;0.20;;;0.20;;
30872;SDS011;17579;42.690;2.586;2023-02-03T05:31:19;0.10;;;0.10;;
30872;SDS011;17579;42.690;2.586;2023-02-03T05:33:44;0.10;;;0.10;;
30872;SDS011;17579;42.690;2.586;2023-02-03T05:36:10;0.28;;;0.20;;
30872;SDS011;17579;42.690;2.586;2023-02-03T05:38:35;0.10;;;0.10;;
30872;SDS011;17579;42.690;2.586;2023-02-03T05:41:01;0.10;;;0.10;;
30872;SDS011;17579;42.690;2.586;2023-02-03T05:43:27;0.10;;;0.10;;
30872;SDS011;17579;42.690;2.586;2023-02-03T05:45:53;0.00;;;0.00;;
30872;SDS011;17579;42.690;2.586;2023-02-03T05:48:19;0.08;;;0.08;;
30872;SDS011;17579;42.690;2.586;2023-02-03T05:50:44;0.20;;;0.10;;
30872;SDS011;17579;42.690;2.586;2023-02-03T05:53:10;0.10;;;0.10;;
30872;SDS011;17579;42.690;2.586;2023-02-03T05:55:36;0.10;;;0.10;;
30872;SDS011;17579;42.690;2.586;2023-02-03T05:58:02;0.10;;;0.10;;
30872;SDS011;17579;42.690;2.586;2023-02-03T06:00:29;0.00;;;0.00;;
30872;SDS011;17579;42.690;2.586;2023-02-03T06:02:55;0.08;;;0.08;;
30872;SDS011;17579;42.690;2.586;2023-02-03T06:05:23;0.03;;;0.00;;
30872;SDS011;17579;42.690;2.586;2023-02-03T06:07:50;0.10;;;0.10;;
30872;SDS011;17579;42.690;2.586;2023-02-03T06:10:16;0.10;;;0.10;;
30872;SDS011;17579;42.690;2.586;2023-02-03T06:12:42;0.10;;;0.10;;
30872;SDS011;17579;42.690;2.586;2023-02-03T06:15:08;0.10;;;0.10;;
30872;SDS011;17579;42.690;2.586;2023-02-03T06:17:34;0.10;;;0.10;;
30872;SDS011;17579;42.690;2.586;2023-02-03T06:20:02;0.10;;;0.10;;
30872;SDS011;17579;42.690;2.586;2023-02-03T06:22:28;0.10;;;0.08;;
30872;SDS011;17579;42.690;2.586;2023-02-03T06:24:54;0.40;;;0.20;;
30872;SDS011;17579;42.690;2.586;2023-02-03T06:27:19;0.10;;;0.10;;
30872;SDS011;17579;42.690;2.586;2023-02-03T06:29:45;0.00;;;0.00;;
30872;SDS011;17579;42.690;2.586;2023-02-03T06:32:10;0.17;;;0.13;;
30872;SDS011;17579;42.690;2.586;2023-02-03T06:34:36;0.20;;;0.20;;
30872;SDS011;17579;42.690;2.586;2023-02-03T06:37:01;0.35;;;0.20;;
30872;SDS011;17579;42.690;2.586;2023-02-03T06:39:27;0.20;;;0.13;;
30872;SDS011;17579;42.690;2.586;2023-02-03T06:41:52;1.17;;;0.30;;
30872;SDS011;17579;42.690;2.586;2023-02-03T06:44:20;0.10;;;0.10;;
30872;SDS011;17579;42.690;2.586;2023-02-03T06:46:45;0.10;;;0.10;;
30872;SDS011;17579;42.690;2.586;2023-02-03T06:49:11;0.13;;;0.13;;
30872;SDS011;17579;42.690;2.586;2023-02-03T06:51:36;0.82;;;0.40;;
30872;SDS011;17579;42.690;2.586;2023-02-03T06:54:02;0.40;;;0.28;;
30872;SDS011;17579;42.690;2.586;2023-02-03T06:56:28;0.30;;;0.25;;
30872;SDS011;17579;42.690;2.586;2023-02-03T06:58:54;0.68;;;0.40;;
30872;SDS011;17579;42.690;2.586;2023-02-03T07:01:20;0.65;;;0.20;;
30872;SDS011;17579;42.690;2.586;2023-02-03T07:03:46;0.73;;;0.40;;
30872;SDS011;17579;42.690;2.586;2023-02-03T07:06:12;0.55;;;0.30;;
30872;SDS011;17579;42.690;2.586;2023-02-03T07:08:38;1.10;;;0.77;;
30872;SDS011;17579;42.690;2.586;2023-02-03T07:11:04;1.05;;;0.57;;
30872;SDS011;17579;42.690;2.586;2023-02-03T07:13:29;1.40;;;0.70;;
30872;SDS011;17579;42.690;2.586;2023-02-03T07:15:55;1.58;;;0.60;;
30872;SDS011;17579;42.690;2.586;2023-02-03T07:18:20;0.73;;;0.60;;
30872;SDS011;17579;42.690;2.586;2023-02-03T07:20:50;0.43;;;0.30;;
30872;SDS011;17579;42.690;2.586;2023-02-03T07:23:16;0.68;;;0.40;;
30872;SDS011;17579;42.690;2.586;2023-02-03T07:25:41;0.82;;;0.50;;
30872;SDS011;17579;42.690;2.586;2023-02-03T07:28:07;0.60;;;0.30;;
30872;SDS011;17579;42.690;2.586;2023-02-03T07:30:32;0.40;;;0.38;;
30872;SDS011;17579;42.690;2.586;2023-02-03T07:32:58;0.47;;;0.47;;
30872;SDS011;17579;42.690;2.586;2023-02-03T07:35:24;1.75;;;0.50;;
30872;SDS011;17579;42.690;2.586;2023-02-03T07:37:51;2.88;;;0.60;;
30872;SDS011;17579;42.690;2.586;2023-02-03T07:40:16;1.60;;;0.57;;
30872;SDS011;17579;42.690;2.586;2023-02-03T07:42:43;2.33;;;0.80;;
30872;SDS011;17579;42.690;2.586;2023-02-03T07:45:11;0.80;;;0.57;;
30872;SDS011;17579;42.690;2.586;2023-02-03T07:47:38;1.08;;;0.68;;
30872;SDS011;17579;42.690;2.586;2023-02-03T07:50:04;0.68;;;0.43;;
30872;SDS011;17579;42.690;2.586;2023-02-03T07:52:30;0.85;;;0.55;;
30872;SDS011;17579;42.690;2.586;2023-02-03T07:54:56;1.27;;;0.68;;
30872;SDS011;17579;42.690;2.586;2023-02-03T07:57:21;0.77;;;0.40;;
30872;SDS011;17579;42.690;2.586;2023-02-03T07:59:47;0.82;;;0.70;;
30872;SDS011;17579;42.690;2.586;2023-02-03T08:02:13;2.67;;;0.52;;
30872;SDS011;17579;42.690;2.586;2023-02-03T08:04:38;1.08;;;0.50;;
30872;SDS011;17579;42.690;2.586;2023-02-03T08:07:04;0.40;;;0.40;;
30872;SDS011;17579;42.690;2.586;2023-02-03T08:09:29;0.82;;;0.52;;
30872;SDS011;17579;42.690;2.586;2023-02-03T08:11:55;0.77;;;0.52;;
30872;SDS011;17579;42.690;2.586;2023-02-03T08:14:20;1.08;;;0.63;;
30872;SDS011;17579;42.690;2.586;2023-02-03T08:16:46;0.98;;;0.60;;
30872;SDS011;17579;42.690;2.586;2023-02-03T08:19:12;1.38;;;0.60;;
30872;SDS011;17579;42.690;2.586;2023-02-03T08:21:37;3.33;;;0.77;;
30872;SDS011;17579;42.690;2.586;2023-02-03T08:24:03;0.75;;;0.63;;
30872;SDS011;17579;42.690;2.586;2023-02-03T08:26:29;1.40;;;0.50;;
30872;SDS011;17579;42.690;2.586;2023-02-03T08:28:54;1.63;;;0.77;;
30872;SDS011;17579;42.690;2.586;2023-02-03T08:31:20;2.05;;;0.55;;
30872;SDS011;17579;42.690;2.586;2023-02-03T08:33:46;2.25;;;0.95;;
30872;SDS011;17579;42.690;2.586;2023-02-03T08:36:11;1.27;;;0.60;;
30872;SDS011;17579;42.690;2.586;2023-02-03T08:38:37;0.63;;;0.50;;
30872;SDS011;17579;42.690;2.586;2023-02-03T08:41:09;0.47;;;0.40;;
30872;SDS011;17579;42.690;2.586;2023-02-03T08:43:36;3.03;;;0.70;;
30872;SDS011;17579;42.690;2.586;2023-02-03T08:46:03;1.08;;;0.50;;
30872;SDS011;17579;42.690;2.586;2023-02-03T08:48:30;1.15;;;0.47;;
30872;SDS011;17579;42.690;2.586;2023-02-03T08:50:55;1.60;;;0.60;;
30872;SDS011;17579;42.690;2.586;2023-02-03T08:53:21;0.68;;;0.40;;
30872;SDS011;17579;42.690;2.586;2023-02-03T08:55:47;0.82;;;0.43;;
30872;SDS011;17579;42.690;2.586;2023-02-03T08:58:12;0.73;;;0.50;;
30872;SDS011;17579;42.690;2.586;2023-02-03T09:00:38;0.63;;;0.60;;
30872;SDS011;17579;42.690;2.586;2023-02-03T09:03:03;0.63;;;0.47;;
30872;SDS011;17579;42.690;2.586;2023-02-03T09:05:29;1.30;;;0.52;;
30872;SDS011;17579;42.690;2.586;2023-02-03T09:07:56;1.17;;;0.55;;
30872;SDS011;17579;42.690;2.586;2023-02-03T09:10:22;1.23;;;0.82;;
30872;SDS011;17579;42.690;2.586;2023-02-03T09:12:47;1.42;;;0.60;;
30872;SDS011;17579;42.690;2.586;2023-02-03T09:15:13;1.23;;;0.60;;
30872;SDS011;17579;42.690;2.586;2023-02-03T09:17:38;0.73;;;0.50;;
30872;SDS011;17579;42.690;2.586;2023-02-03T09:20:04;0.82;;;0.50;;
30872;SDS011;17579;42.690;2.586;2023-02-03T09:22:30;0.73;;;0.60;;
30872;SDS011;17579;42.690;2.586;2023-02-03T09:24:55;0.50;;;0.35;;
30872;SDS011;17579;42.690;2.586;2023-02-03T09:27:22;1.02;;;0.50;;
30872;SDS011;17579;42.690;2.586;2023-02-03T09:29:47;1.15;;;0.57;;
30872;SDS011;17579;42.690;2.586;2023-02-03T09:32:13;2.17;;;0.50;;
30872;SDS011;17579;42.690;2.586;2023-02-03T09:34:38;0.70;;;0.55;;
30872;SDS011;17579;42.690;2.586;2023-02-03T09:37:05;0.88;;;0.40;;
30872;SDS011;17579;42.690;2.586;2023-02-03T09:39:32;0.20;;;0.20;;
30872;SDS011;17579;42.690;2.586;2023-02-03T09:42:02;1.05;;;0.52;;
30872;SDS011;17579;42.690;2.586;2023-02-03T09:49:37;0.50;;;0.30;;
30872;SDS011;17579;42.690;2.586;2023-02-03T09:52:07;1.45;;;0.43;;
30872;SDS011;17579;42.690;2.586;2023-02-03T09:57:45;0.32;;;0.32;;
30872;SDS011;17579;42.690;2.586;2023-02-03T10:00:18;0.43;;;0.40;;
30872;SDS011;17579;42.690;2.586;2023-02-03T10:02:50;0.30;;;0.30;;
30872;SDS011;17579;42.690;2.586;2023-02-03T10:05:24;0.30;;;0.30;;
30872;SDS011;17579;42.690;2.586;2023-02-03T10:08:21;0.30;;;0.30;;
30872;SDS011;17579;42.690;2.586;2023-02-03T10:10:57;0.30;;;0.30;;
30872;SDS011;17579;42.690;2.586;2023-02-03T10:13:33;0.10;;;0.10;;
30872;SDS011;17579;42.690;2.586;2023-02-03T10:16:12;0.47;;;0.30;;
30872;SDS011;17579;42.690;2.586;2023-02-03T10:18:44;0.20;;;0.20;;
30872;SDS011;17579;42.690;2.586;2023-02-03T10:23:43;0.20;;;0.20;;
30872;SDS011;17579;42.690;2.586;2023-02-03T10:26:14;0.45;;;0.32;;
30872;SDS011;17579;42.690;2.586;2023-02-03T10:28:47;0.75;;;0.20;;
30872;SDS011;17579;42.690;2.586;2023-02-03T10:31:20;2.28;;;0.22;;
30872;SDS011;17579;42.690;2.586;2023-02-03T10:33:48;0.30;;;0.30;;
30872;SDS011;17579;42.690;2.586;2023-02-03T10:36:22;0.10;;;0.10;;
30872;SDS011;17579;42.690;2.586;2023-02-03T10:38:59;0.08;;;0.08;;
30872;SDS011;17579;42.690;2.586;2023-02-03T10:41:34;0.10;;;0.10;;
30872;SDS011;17579;42.690;2.586;2023-02-03T10:44:01;0.20;;;0.20;;
30872;SDS011;17579;42.690;2.586;2023-02-03T10:46:31;0.28;;;0.28;;
30872;SDS011;17579;42.690;2.586;2023-02-03T10:48:59;0.30;;;0.30;;
30872;SDS011;17579;42.690;2.586;2023-02-03T10:51:26;0.20;;;0.20;;
30872;SDS011;17579;42.690;2.586;2023-02-03T10:53:56;0.25;;;0.20;;
30872;SDS011;17579;42.690;2.586;2023-02-03T10:58:52;0.20;;;0.20;;
30872;SDS011;17579;42.690;2.586;2023-02-03T11:01:21;0.57;;;0.30;;
30872;SDS011;17579;42.690;2.586;2023-02-03T11:06:16;0.60;;;0.30;;
30872;SDS011;17579;42.690;2.586;2023-02-03T11:08:43;1.23;;;0.30;;
30872;SDS011;17579;42.690;2.586;2023-02-03T11:13:37;0.20;;;0.20;;
30872;SDS011;17579;42.690;2.586;2023-02-03T11:16:03;0.30;;;0.30;;
30872;SDS011;17579;42.690;2.586;2023-02-03T11:21:20;0.20;;;0.20;;
30872;SDS011;17579;42.690;2.586;2023-02-03T11:23:51;0.38;;;0.38;;
30872;SDS011;17579;42.690;2.586;2023-02-03T11:26:18;1.42;;;0.30;;
30872;SDS011;17579;42.690;2.586;2023-02-03T11:28:49;0.52;;;0.40;;
30872;SDS011;17579;42.690;2.586;2023-02-03T11:31:18;0.40;;;0.30;;
30872;SDS011;17579;42.690;2.586;2023-02-03T11:33:48;0.30;;;0.30;;
30872;SDS011;17579;42.690;2.586;2023-02-03T11:36:18;0.55;;;0.20;;
30872;SDS011;17579;42.690;2.586;2023-02-03T11:38:44;0.30;;;0.30;;
30872;SDS011;17579;42.690;2.586;2023-02-03T11:43:37;0.20;;;0.20;;
30872;SDS011;17579;42.690;2.586;2023-02-03T11:46:03;0.90;;;0.30;;
30872;SDS011;17579;42.690;2.586;2023-02-03T12:09:47;0.68;;;0.50;;
30872;SDS011;17579;42.690;2.586;2023-02-03T12:12:41;2.05;;;0.70;;
30872;SDS011;17579;42.690;2.586;2023-02-03T12:21:02;1.48;;;0.40;;
30872;SDS011;17579;42.690;2.586;2023-02-03T12:23:45;0.80;;;0.60;;
30872;SDS011;17579;42.690;2.586;2023-02-03T12:26:24;0.60;;;0.57;;
30872;SDS011;17579;42.690;2.586;2023-02-03T12:29:00;0.30;;;0.30;;
30872;SDS011;17579;42.690;2.586;2023-02-03T12:31:33;0.57;;;0.50;;
30872;SDS011;17579;42.690;2.586;2023-02-03T12:34:05;0.90;;;0.65;;
30872;SDS011;17579;42.690;2.586;2023-02-03T12:36:55;0.60;;;0.50;;
30872;SDS011;17579;42.690;2.586;2023-02-03T12:39:30;0.60;;;0.50;;
30872;SDS011;17579;42.690;2.586;2023-02-03T12:42:06;0.30;;;0.30;;
30872;SDS011;17579;42.690;2.586;2023-02-03T12:47:13;0.57;;;0.47;;
30872;SDS011;17579;42.690;2.586;2023-02-03T12:49:46;0.40;;;0.40;;
30872;SDS011;17579;42.690;2.586;2023-02-03T12:55:14;0.57;;;0.50;;
30872;SDS011;17579;42.690;2.586;2023-02-03T12:57:50;0.32;;;0.30;;
30872;SDS011;17579;42.690;2.586;2023-02-03T13:00:32;2.08;;;0.40;;
30872;SDS011;17579;42.690;2.586;2023-02-03T13:03:06;0.60;;;0.60;;
30872;SDS011;17579;42.690;2.586;2023-02-03T13:11:19;0.40;;;0.40;;
30872;SDS011;17579;42.690;2.586;2023-02-03T13:13:53;0.20;;;0.20;;
30872;SDS011;17579;42.690;2.586;2023-02-03T13:18:52;0.43;;;0.40;;
30872;SDS011;17579;42.690;2.586;2023-02-03T13:21:24;1.27;;;0.45;;
30872;SDS011;17579;42.690;2.586;2023-02-03T13:23:49;0.30;;;0.30;;
30872;SDS011;17579;42.690;2.586;2023-02-03T13:28:58;0.45;;;0.40;;
30872;SDS011;17579;42.690;2.586;2023-02-03T13:37:08;1.48;;;0.40;;
30872;SDS011;17579;42.690;2.586;2023-02-03T13:44:40;0.68;;;0.50;;
30872;SDS011;17579;42.690;2.586;2023-02-03T13:49:36;0.70;;;0.60;;
30872;SDS011;17579;42.690;2.586;2023-02-03T13:52:01;0.40;;;0.40;;
30872;SDS011;17579;42.690;2.586;2023-02-03T13:54:32;0.30;;;0.30;;
30872;SDS011;17579;42.690;2.586;2023-02-03T13:57:02;0.77;;;0.57;;
30872;SDS011;17579;42.690;2.586;2023-02-03T14:12:57;0.50;;;0.50;;
30872;SDS011;17579;42.690;2.586;2023-02-03T14:17:59;0.47;;;0.43;;
30872;SDS011;17579;42.690;2.586;2023-02-03T14:23:10;0.70;;;0.45;;
30872;SDS011;17579;42.690;2.586;2023-02-03T14:28:11;0.88;;;0.60;;
30872;SDS011;17579;42.690;2.586;2023-02-03T14:33:07;0.50;;;0.50;;
30872;SDS011;17579;42.690;2.586;2023-02-03T14:35:33;0.50;;;0.50;;
30872;SDS011;17579;42.690;2.586;2023-02-03T14:38:03;0.50;;;0.40;;
30872;SDS011;17579;42.690;2.586;2023-02-03T14:40:50;0.65;;;0.30;;
30872;SDS011;17579;42.690;2.586;2023-02-03T14:43:23;0.68;;;0.55;;
30872;SDS011;17579;42.690;2.586;2023-02-03T14:46:10;0.57;;;0.40;;
30872;SDS011;17579;42.690;2.586;2023-02-03T14:48:44;0.50;;;0.40;;
30872;SDS011;17579;42.690;2.586;2023-02-03T14:51:18;0.30;;;0.20;;
30872;SDS011;17579;42.690;2.586;2023-02-03T14:54:13;0.30;;;0.30;;
30872;SDS011;17579;42.690;2.586;2023-02-03T14:56:46;0.45;;;0.40;;
30872;SDS011;17579;42.690;2.586;2023-02-03T14:59:20;0.35;;;0.35;;
30872;SDS011;17579;42.690;2.586;2023-02-03T15:04:39;0.50;;;0.40;;
30872;SDS011;17579;42.690;2.586;2023-02-03T15:07:05;0.35;;;0.35;;
30872;SDS011;17579;42.690;2.586;2023-02-03T15:09:33;0.50;;;0.50;;
30872;SDS011;17579;42.690;2.586;2023-02-03T15:14:31;0.30;;;0.30;;
30872;SDS011;17579;42.690;2.586;2023-02-03T15:16:58;0.60;;;0.50;;
30872;SDS011;17579;42.690;2.586;2023-02-03T15:19:27;0.20;;;0.20;;
30872;SDS011;17579;42.690;2.586;2023-02-03T15:21:56;0.43;;;0.43;;
30872;SDS011;17579;42.690;2.586;2023-02-03T15:24:22;0.47;;;0.40;;
30872;SDS011;17579;42.690;2.586;2023-02-03T15:26:51;0.35;;;0.35;;
30872;SDS011;17579;42.690;2.586;2023-02-03T15:29:19;0.40;;;0.40;;
30872;SDS011;17579;42.690;2.586;2023-02-03T15:31:49;0.50;;;0.40;;
30872;SDS011;17579;42.690;2.586;2023-02-03T15:34:22;0.40;;;0.40;;
30872;SDS011;17579;42.690;2.586;2023-02-03T15:36:54;0.40;;;0.40;;
30872;SDS011;17579;42.690;2.586;2023-02-03T15:41:50;0.40;;;0.40;;
30872;SDS011;17579;42.690;2.586;2023-02-03T15:44:24;0.43;;;0.30;;
30872;SDS011;17579;42.690;2.586;2023-02-03T15:46:54;0.47;;;0.40;;
30872;SDS011;17579;42.690;2.586;2023-02-03T15:49:24;0.30;;;0.30;;
30872;SDS011;17579;42.690;2.586;2023-02-03T15:51:55;0.30;;;0.30;;
30872;SDS011;17579;42.690;2.586;2023-02-03T15:54:27;0.40;;;0.40;;
30872;SDS011;17579;42.690;2.586;2023-02-03T15:57:06;0.60;;;0.50;;
30872;SDS011;17579;42.690;2.586;2023-02-03T15:59:37;0.52;;;0.40;;
30872;SDS011;17579;42.690;2.586;2023-02-03T16:02:13;0.77;;;0.38;;
30872;SDS011;17579;42.690;2.586;2023-02-03T16:04:45;0.60;;;0.60;;
30872;SDS011;17579;42.690;2.586;2023-02-03T16:07:25;0.40;;;0.40;;
30872;SDS011;17579;42.690;2.586;2023-02-03T16:09:54;0.55;;;0.40;;
30872;SDS011;17579;42.690;2.586;2023-02-03T16:12:23;0.32;;;0.32;;
30872;SDS011;17579;42.690;2.586;2023-02-03T16:14:51;0.43;;;0.43;;
30872;SDS011;17579;42.690;2.586;2023-02-03T16:22:35;0.50;;;0.50;;
30872;SDS011;17579;42.690;2.586;2023-02-03T16:25:19;0.45;;;0.45;;
30872;SDS011;17579;42.690;2.586;2023-02-03T16:30:33;0.40;;;0.40;;
30872;SDS011;17579;42.690;2.586;2023-02-03T16:33:15;0.65;;;0.57;;
30872;SDS011;17579;42.690;2.586;2023-02-03T16:35:42;1.75;;;0.50;;
30872;SDS011;17579;42.690;2.586;2023-02-03T16:40:41;0.50;;;0.30;;
30872;SDS011;17579;42.690;2.586;2023-02-03T16:43:11;0.43;;;0.43;;
30872;SDS011;17579;42.690;2.586;2023-02-03T16:45:39;2.05;;;0.60;;
30872;SDS011;17579;42.690;2.586;2023-02-03T16:48:05;0.40;;;0.20;;
30872;SDS011;17579;42.690;2.586;2023-02-03T16:50:35;0.40;;;0.40;;
30872;SDS011;17579;42.690;2.586;2023-02-03T16:53:02;0.30;;;0.25;;
30872;SDS011;17579;42.690;2.586;2023-02-03T16:55:27;0.40;;;0.30;;
30872;SDS011;17579;42.690;2.586;2023-02-03T16:57:53;0.52;;;0.40;;
30872;SDS011;17579;42.690;2.586;2023-02-03T17:00:19;0.13;;;0.13;;
30872;SDS011;17579;42.690;2.586;2023-02-03T17:02:46;0.38;;;0.38;;
30872;SDS011;17579;42.690;2.586;2023-02-03T17:05:13;0.70;;;0.50;;
30872;SDS011;17579;42.690;2.586;2023-02-03T17:07:40;0.40;;;0.30;;
30872;SDS011;17579;42.690;2.586;2023-02-03T17:10:05;0.90;;;0.50;;
30872;SDS011;17579;42.690;2.586;2023-02-03T17:12:32;0.50;;;0.50;;
30872;SDS011;17579;42.690;2.586;2023-02-03T17:14:58;0.98;;;0.70;;
30872;SDS011;17579;42.690;2.586;2023-02-03T17:17:24;0.50;;;0.47;;
30872;SDS011;17579;42.690;2.586;2023-02-03T17:19:49;0.70;;;0.70;;
30872;SDS011;17579;42.690;2.586;2023-02-03T17:22:15;0.60;;;0.60;;
30872;SDS011;17579;42.690;2.586;2023-02-03T17:24:41;0.70;;;0.70;;
30872;SDS011;17579;42.690;2.586;2023-02-03T17:27:06;0.38;;;0.38;;
30872;SDS011;17579;42.690;2.586;2023-02-03T17:29:32;1.05;;;0.52;;